Time;durP1;ratioP1;P1;durP2;ratioP2;P2;SDS_P1;SDS_P2;PMS_P1;PMS_P2;Temp;Humidity;BMP_temperature;BMP_pressure;BME280_temperature;BME280_humidity;BME280_pressure;Samples;Min_cycle;Max_cycle;Signal;HPM_P1;HPM_P2
2021/11/17 05:01:38;;;;;;;17.13;10.90;;;7.60;99.90;;;;;;5609216;23;20571;-67
2021/11/17 05:04:20;;;;;;;16.10;11.57;;;7.60;99.90;;;;;;5030131;28;20466;-68
2021/11/17 05:06:58;;;;;;;17.13;11.37;;;7.60;99.90;;;;;;5016269;28;20491;-67
2021/11/17 05:09:36;;;;;;;17.43;11.97;;;7.60;99.90;;;;;;5016267;28;20448;-66
2021/11/17 05:12:16;;;;;;;16.80;11.90;;;7.60;99.90;;;;;;5015432;28;20473;-67
2021/11/17 05:14:53;;;;;;;15.60;11.13;;;7.60;99.90;;;;;;5015558;28;20457;-68
2021/11/17 05:17:33;;;;;;;19.73;12.20;;;7.60;99.90;;;;;;5015550;28;20509;-67
2021/11/17 05:20:11;;;;;;;15.33;11.70;;;7.60;99.90;;;;;;5015626;28;20445;-68
2021/11/17 05:22:49;;;;;;;20.87;12.37;;;7.60;99.90;;;;;;5015553;28;20804;-67
2021/11/17 05:25:31;;;;;;;15.13;11.73;;;7.60;99.90;;;;;;5015440;28;20472;-68
2021/11/17 05:28:14;;;;;;;15.70;11.57;;;7.50;99.90;;;;;;5017331;28;20444;-68
2021/11/17 05:30:56;;;;;;;17.03;12.30;;;7.60;99.90;;;;;;5015216;28;20483;-68
2021/11/17 05:33:39;;;;;;;17.40;11.13;;;7.60;99.90;;;;;;5015880;28;20437;-70
2021/11/17 05:36:18;;;;;;;16.70;11.80;;;7.60;99.90;;;;;;5015950;28;20437;-69
2021/11/17 05:39:03;;;;;;;18.27;11.63;;;7.50;99.90;;;;;;5015326;28;20441;-68
2021/11/17 05:41:47;;;;;;;15.40;10.80;;;7.60;99.90;;;;;;5015881;28;20485;-68
2021/11/17 05:44:34;;;;;;;16.03;10.83;;;7.50;99.90;;;;;;5015593;28;20540;-69
2021/11/17 05:47:19;;;;;;;17.83;11.30;;;7.50;99.90;;;;;;5015520;28;20438;-68
2021/11/17 05:49:59;;;;;;;14.40;10.60;;;7.50;99.90;;;;;;5016525;28;20437;-70
2021/11/17 05:52:51;;;;;;;12.60;10.27;;;7.70;99.90;;;;;;5014824;28;20477;-70
2021/11/17 05:55:46;;;;;;;15.40;10.90;;;8.10;99.90;;;;;;5015170;28;20456;-70
2021/11/17 05:58:27;;;;;;;13.53;9.23;;;8.40;99.90;;;;;;5015054;28;20457;-70
2021/11/17 06:01:10;;;;;;;13.33;9.80;;;8.70;99.90;;;;;;5016320;28;20485;-71
2021/11/17 06:03:56;;;;;;;12.87;9.30;;;8.80;99.90;;;;;;5016682;28;20426;-71
2021/11/17 06:06:23;;;;;;;12.10;9.10;;;8.80;99.90;;;;;;5016882;28;20438;-71
2021/11/17 06:08:50;;;;;;;11.97;9.33;;;8.60;99.90;;;;;;5015814;28;20453;-71
2021/11/17 06:11:19;;;;;;;14.10;10.20;;;8.50;99.90;;;;;;5015153;28;20521;-72
2021/11/17 06:13:46;;;;;;;12.33;10.50;;;8.40;99.90;;;;;;5015121;28;20496;-71
2021/11/17 06:16:13;;;;;;;13.23;10.60;;;8.30;99.90;;;;;;5014772;28;20457;-72
2021/11/17 06:18:42;;;;;;;14.63;10.13;;;8.20;99.90;;;;;;5014592;28;20499;-71
2021/11/17 06:21:11;;;;;;;15.03;10.30;;;8.00;99.90;;;;;;5014969;28;20473;-72
2021/11/17 06:23:44;;;;;;;16.70;11.43;;;8.00;99.90;;;;;;5014658;28;20456;-72
2021/11/17 06:26:12;;;;;;;16.10;10.97;;;7.90;99.90;;;;;;5014662;28;20465;-70
2021/11/17 06:28:41;;;;;;;20.33;11.37;;;7.70;99.90;;;;;;5014091;28;20457;-71
2021/11/17 06:31:08;;;;;;;15.03;10.27;;;7.70;99.90;;;;;;5014826;28;20481;-71
2021/11/17 06:33:34;;;;;;;16.13;10.93;;;7.60;99.90;;;;;;5015504;28;20457;-71
2021/11/17 06:36:01;;;;;;;16.90;10.77;;;7.60;99.90;;;;;;5014640;28;20460;-71
2021/11/17 06:38:28;;;;;;;12.63;8.80;;;7.40;99.90;;;;;;5014683;28;20452;-72
2021/11/17 06:40:54;;;;;;;13.40;9.33;;;7.30;99.90;;;;;;5014562;28;20881;-71
2021/11/17 06:43:21;;;;;;;15.17;9.00;;;7.30;99.90;;;;;;5014652;28;20457;-71
2021/11/17 06:45:52;;;;;;;14.33;10.07;;;7.30;99.90;;;;;;5014283;28;20486;-70
2021/11/17 06:48:20;;;;;;;14.17;10.77;;;7.30;99.90;;;;;;5015315;28;20457;-69
2021/11/17 06:50:48;;;;;;;17.23;10.43;;;7.30;99.90;;;;;;5015388;28;20817;-69
2021/11/17 06:53:15;;;;;;;14.43;10.17;;;7.30;99.90;;;;;;5016787;28;20472;-69
2021/11/17 06:55:42;;;;;;;12.77;10.30;;;7.30;99.90;;;;;;5019115;28;20477;-70
2021/11/17 06:58:09;;;;;;;11.60;9.13;;;7.30;99.90;;;;;;5015280;28;20457;-69
2021/11/17 07:00:39;;;;;;;15.60;11.43;;;7.30;99.90;;;;;;5015710;28;20528;-69
2021/11/17 07:03:08;;;;;;;14.50;10.20;;;7.40;99.90;;;;;;5014501;28;20806;-69
2021/11/17 07:05:34;;;;;;;12.80;10.40;;;7.40;99.90;;;;;;5016384;28;20854;-69
2021/11/17 07:08:03;;;;;;;13.00;9.73;;;7.30;99.90;;;;;;5014256;28;20461;-69
2021/11/17 07:10:32;;;;;;;14.20;10.57;;;7.40;99.90;;;;;;5014296;28;20464;-70
2021/11/17 07:12:59;;;;;;;17.07;9.67;;;7.40;99.90;;;;;;5014197;28;20464;-70
2021/11/17 07:15:28;;;;;;;13.00;9.10;;;7.50;99.90;;;;;;5014137;28;20455;-71
2021/11/17 07:17:56;;;;;;;11.97;9.40;;;7.40;99.90;;;;;;5015059;28;20464;-69
2021/11/17 07:20:25;;;;;;;13.47;9.60;;;7.50;99.90;;;;;;5017967;28;20460;-69
2021/11/17 07:22:51;;;;;;;14.73;10.17;;;7.50;99.90;;;;;;5018571;28;20463;-69
2021/11/17 07:25:20;;;;;;;14.60;10.07;;;7.60;99.90;;;;;;5017813;28;20473;-70
2021/11/17 07:27:47;;;;;;;13.30;10.03;;;7.60;99.90;;;;;;5018212;28;20433;-69
2021/11/17 07:30:20;;;;;;;14.80;9.90;;;7.60;99.90;;;;;;5017557;28;20998;-69
2021/11/17 07:32:50;;;;;;;14.50;9.70;;;7.60;99.90;;;;;;5018556;28;20445;-70
2021/11/17 07:35:18;;;;;;;11.60;8.70;;;7.60;99.90;;;;;;5018193;28;20511;-70
2021/11/17 07:37:47;;;;;;;8.43;6.70;;;7.60;99.90;;;;;;5018677;28;20468;-70
2021/11/17 07:40:15;;;;;;;8.13;5.77;;;7.50;99.90;;;;;;5018264;28;20948;-70
2021/11/17 07:42:42;;;;;;;5.67;4.83;;;7.50;99.90;;;;;;5018507;28;20940;-70
2021/11/17 07:45:12;;;;;;;5.17;4.23;;;7.50;99.90;;;;;;5018447;28;20825;-70
2021/11/17 07:47:39;;;;;;;9.07;4.60;;;7.50;99.90;;;;;;5018510;28;20917;-70
2021/11/17 07:50:07;;;;;;;5.20;4.73;;;7.50;99.90;;;;;;5018870;28;20453;-69
2021/11/17 07:52:34;;;;;;;6.10;4.97;;;7.50;99.90;;;;;;5018716;28;20548;-70
2021/11/17 07:55:03;;;;;;;5.70;5.10;;;7.60;99.90;;;;;;5017949;28;20456;-70
2021/11/17 07:57:31;;;;;;;8.90;6.30;;;7.60;99.90;;;;;;5018267;28;20453;-70
2021/11/17 07:59:58;;;;;;;6.13;4.80;;;7.70;99.90;;;;;;5018144;28;20460;-70
2021/11/17 08:02:26;;;;;;;6.33;5.57;;;7.70;99.90;;;;;;5024450;28;20513;-70
2021/11/17 08:04:53;;;;;;;6.70;6.00;;;7.70;99.90;;;;;;5022333;28;20492;-69
2021/11/17 08:07:20;;;;;;;5.90;5.00;;;7.70;99.90;;;;;;5020000;28;20544;-70
2021/11/17 08:09:49;;;;;;;8.00;6.10;;;7.70;99.90;;;;;;5018410;28;20461;-71
2021/11/17 08:12:18;;;;;;;9.27;6.27;;;7.70;99.90;;;;;;5017214;28;21079;-70
2021/11/17 08:14:45;;;;;;;8.30;5.87;;;7.70;99.90;;;;;;5018089;28;20465;-69
2021/11/17 08:17:12;;;;;;;6.70;6.03;;;7.70;99.90;;;;;;5018499;28;20442;-69
2021/11/17 08:19:38;;;;;;;7.90;5.40;;;7.70;99.90;;;;;;5017600;28;20460;-70
2021/11/17 08:22:08;;;;;;;6.47;5.87;;;7.60;99.90;;;;;;5018240;28;21002;-70
2021/11/17 08:24:37;;;;;;;7.63;5.90;;;7.60;99.90;;;;;;5017595;28;20552;-69
2021/11/17 08:27:05;;;;;;;7.27;6.07;;;7.60;99.90;;;;;;5019174;28;20536;-69
2021/11/17 08:29:33;;;;;;;11.63;7.07;;;7.60;99.90;;;;;;5020059;28;20504;-69
2021/11/17 08:32:00;;;;;;;6.50;5.33;;;7.60;99.90;;;;;;5021708;28;20480;-69
2021/11/17 08:34:28;;;;;;;10.47;6.87;;;7.60;99.90;;;;;;5021622;28;20453;-69
2021/11/17 08:36:55;;;;;;;5.80;5.20;;;7.50;99.90;;;;;;5032200;28;20832;-69
2021/11/17 08:39:23;;;;;;;5.70;4.80;;;7.40;99.90;;;;;;5032116;28;20438;-69
2021/11/17 08:41:50;;;;;;;9.23;5.97;;;7.50;99.90;;;;;;5021568;28;20477;-71
2021/11/17 08:44:17;;;;;;;9.30;5.60;;;7.50;99.90;;;;;;5021666;28;20782;-69
2021/11/17 08:46:45;;;;;;;6.10;5.50;;;7.50;99.90;;;;;;5022591;28;20484;-69
2021/11/17 08:49:12;;;;;;;5.77;5.13;;;7.40;99.90;;;;;;5021649;28;20442;-70
2021/11/17 08:51:39;;;;;;;7.90;6.70;;;7.40;99.90;;;;;;5021049;28;20824;-70
2021/11/17 08:54:07;;;;;;;7.10;6.40;;;7.50;99.90;;;;;;5018291;28;20453;-71
2021/11/17 08:56:35;;;;;;;6.33;5.73;;;7.40;99.90;;;;;;5017194;28;20449;-68
2021/11/17 08:59:04;;;;;;;9.50;7.10;;;7.30;99.90;;;;;;5016566;28;20457;-70
2021/11/17 09:01:31;;;;;;;5.60;5.10;;;7.30;99.90;;;;;;5017010;28;20485;-70
2021/11/17 09:03:59;;;;;;;7.10;6.03;;;7.30;99.90;;;;;;5017150;28;20786;-70
2021/11/17 09:06:26;;;;;;;5.70;4.53;;;7.30;99.90;;;;;;5016725;28;20484;-70
2021/11/17 09:08:53;;;;;;;8.90;5.00;;;7.30;99.90;;;;;;5017091;28;20452;-69
2021/11/17 09:11:21;;;;;;;5.07;4.57;;;7.30;99.90;;;;;;5016937;28;20480;-70
2021/11/17 09:13:50;;;;;;;4.90;4.00;;;7.20;99.90;;;;;;5016459;28;20466;-70
2021/11/17 09:16:17;;;;;;;4.37;3.70;;;7.10;99.90;;;;;;5015996;28;20549;-70
2021/11/17 09:18:44;;;;;;;5.10;3.90;;;7.10;99.90;;;;;;5016467;28;20433;-70
2021/11/17 09:21:15;;;;;;;4.00;3.60;;;7.10;99.90;;;;;;5016016;28;20480;-71
2021/11/17 09:23:43;;;;;;;5.20;4.20;;;7.10;99.90;;;;;;5015639;28;20444;-70
2021/11/17 09:26:12;;;;;;;4.10;3.80;;;7.10;99.90;;;;;;5015737;28;20860;-69
2021/11/17 09:28:39;;;;;;;4.90;3.90;;;7.20;99.90;;;;;;5016412;28;20487;-70
2021/11/17 09:31:08;;;;;;;4.03;3.67;;;7.20;99.90;;;;;;5016648;28;20477;-71
2021/11/17 09:33:37;;;;;;;6.10;4.10;;;7.20;99.90;;;;;;5016397;28;20464;-71
2021/11/17 09:36:04;;;;;;;4.20;3.80;;;7.20;99.90;;;;;;5017824;28;20469;-69
2021/11/17 09:38:32;;;;;;;5.10;4.07;;;7.20;99.90;;;;;;5019875;28;20485;-70
2021/11/17 09:41:02;;;;;;;3.90;3.60;;;7.20;99.90;;;;;;5016261;28;20508;-70
2021/11/17 09:43:34;;;;;;;2.90;2.70;;;7.30;99.90;;;;;;5015842;28;20449;-70
2021/11/17 09:46:01;;;;;;;4.00;3.67;;;7.30;99.90;;;;;;5016087;28;20461;-70
2021/11/17 09:48:32;;;;;;;4.20;3.77;;;7.30;99.90;;;;;;5017022;28;20480;-70
2021/11/17 09:51:03;;;;;;;2.70;2.20;;;7.40;99.90;;;;;;5016312;28;20473;-70
2021/11/17 09:53:36;;;;;;;2.40;2.20;;;7.50;99.90;;;;;;5016105;28;20446;-70
2021/11/17 09:56:06;;;;;;;2.50;2.30;;;7.50;99.90;;;;;;5016283;28;20441;-70
2021/11/17 09:58:35;;;;;;;4.03;2.60;;;7.50;99.90;;;;;;5016354;28;20516;-70
2021/11/17 10:01:08;;;;;;;2.83;2.50;;;7.60;99.90;;;;;;5020833;28;20485;-70
2021/11/17 10:03:40;;;;;;;2.40;2.30;;;7.60;99.90;;;;;;5025105;28;20461;-70
2021/11/17 10:14:45;;;;;;;2.57;2.13;;;8.00;99.90;;;;;;5016982;28;20412;-70
2021/11/17 10:17:41;;;;;;;2.27;2.17;;;8.00;99.90;;;;;;5017269;28;20436;-70
2021/11/17 10:20:25;;;;;;;2.10;2.00;;;8.10;99.90;;;;;;5016656;28;20441;-70
2021/11/17 10:23:15;;;;;;;2.33;2.13;;;8.10;99.90;;;;;;5015180;28;20945;-70
2021/11/17 10:25:46;;;;;;;5.63;4.10;;;8.20;99.90;;;;;;5016222;28;20501;-70
2021/11/17 10:28:13;;;;;;;2.63;2.40;;;8.20;99.90;;;;;;5016192;28;20434;-70
2021/11/17 10:30:51;;;;;;;2.43;2.33;;;8.20;99.90;;;;;;5014946;28;20469;-70
2021/11/17 10:33:22;;;;;;;2.10;2.00;;;8.30;99.90;;;;;;5014653;28;20442;-70
2021/11/17 10:36:13;;;;;;;1.70;1.70;;;8.30;99.90;;;;;;5014349;28;20936;-69
2021/11/17 10:38:44;;;;;;;2.47;2.33;;;8.30;99.90;;;;;;5014766;28;20457;-69
2021/11/17 10:41:22;;;;;;;2.50;2.30;;;8.30;99.90;;;;;;5014618;28;20477;-70
2021/11/17 10:43:55;;;;;;;2.47;2.27;;;8.30;99.90;;;;;;5015298;28;20445;-70
2021/11/17 10:46:25;;;;;;;2.20;2.10;;;8.30;99.90;;;;;;5015216;28;20497;-70
2021/11/17 10:48:54;;;;;;;2.40;2.30;;;8.30;99.90;;;;;;5015455;28;20925;-70
2021/11/17 10:51:23;;;;;;;2.10;2.00;;;8.30;99.90;;;;;;5015275;28;20500;-71
2021/11/17 10:53:52;;;;;;;2.07;1.87;;;8.30;99.90;;;;;;5017158;28;20456;-71
2021/11/17 10:56:23;;;;;;;1.70;1.60;;;8.30;99.90;;;;;;5018311;28;20460;-71
2021/11/17 10:58:52;;;;;;;1.50;1.50;;;8.30;99.90;;;;;;5022551;28;20447;-71
2021/11/17 11:01:22;;;;;;;1.50;1.40;;;8.10;99.90;;;;;;5033837;28;20493;-71
2021/11/17 11:03:52;;;;;;;1.70;1.60;;;8.00;99.90;;;;;;5018797;28;20456;-71
2021/11/17 11:06:22;;;;;;;1.73;1.63;;;8.00;99.90;;;;;;5018484;28;20477;-71
2021/11/17 11:09:00;;;;;;;1.60;1.50;;;8.00;99.90;;;;;;5021697;28;20449;-71
2021/11/17 11:11:30;;;;;;;2.00;1.53;;;8.00;99.90;;;;;;5019042;28;20469;-71
2021/11/17 11:14:00;;;;;;;1.53;1.50;;;8.10;99.90;;;;;;5018282;28;20948;-72
2021/11/17 11:16:31;;;;;;;1.13;1.00;;;8.20;99.90;;;;;;5017948;28;20807;-71
2021/11/17 11:19:27;;;;;;;0.93;0.93;;;8.20;99.90;;;;;;5018165;28;20437;-71
2021/11/17 11:22:10;;;;;;;1.37;1.37;;;8.10;99.90;;;;;;5018408;28;20527;-71
2021/11/17 11:24:40;;;;;;;1.90;1.20;;;8.20;99.90;;;;;;5017836;28;20437;-71
2021/11/17 11:27:28;;;;;;;1.27;1.27;;;8.20;99.90;;;;;;5017481;28;20473;-71
2021/11/17 11:30:35;;;;;;;1.30;1.30;;;8.20;99.90;;;;;;5018173;28;20448;-70
2021/11/17 11:33:19;;;;;;;1.03;1.03;;;8.20;99.90;;;;;;4997650;28;20457;-71
2021/11/17 11:36:36;;;;;;;1.47;1.37;;;8.10;99.90;;;;;;5018242;28;20437;-71
2021/11/17 11:39:25;;;;;;;1.20;1.10;;;8.20;99.90;;;;;;5018758;28;20484;-71
2021/11/17 11:42:19;;;;;;;1.10;1.10;;;8.20;99.90;;;;;;5014706;28;20485;-71
2021/11/17 11:44:48;;;;;;;1.20;1.10;;;8.20;99.90;;;;;;5017824;28;20448;-71
2021/11/17 11:47:51;;;;;;;1.67;1.33;;;8.10;99.90;;;;;;5017329;28;20507;-71
2021/11/17 11:50:58;;;;;;;1.27;1.27;;;8.00;99.90;;;;;;5017052;28;20868;-71
2021/11/17 11:54:00;;;;;;;1.33;1.33;;;8.00;99.90;;;;;;5017682;28;20433;-70
2021/11/17 11:56:35;;;;;;;1.43;1.40;;;8.00;99.90;;;;;;5013710;28;20445;-70
2021/11/17 11:59:04;;;;;;;1.00;1.00;;;8.00;99.90;;;;;;5018090;28;20441;-70
2021/11/17 12:01:32;;;;;;;1.50;1.50;;;7.90;99.90;;;;;;5017733;28;20850;-71
2021/11/17 12:04:03;;;;;;;1.27;1.17;;;7.80;99.90;;;;;;5017185;28;20941;-71
2021/11/17 12:06:35;;;;;;;1.20;1.20;;;7.80;99.90;;;;;;5016759;28;20461;-70
2021/11/17 12:09:18;;;;;;;0.90;0.90;;;7.80;99.90;;;;;;5017440;28;20876;-70
2021/11/17 12:11:49;;;;;;;3.27;1.10;;;7.80;99.90;;;;;;5017068;28;20477;-71
2021/11/17 12:14:38;;;;;;;1.23;1.20;;;7.90;99.90;;;;;;5017743;28;20824;-70
2021/11/17 12:17:06;;;;;;;1.33;1.33;;;7.80;99.90;;;;;;5019104;28;20458;-71
2021/11/17 12:19:39;;;;;;;1.33;1.27;;;7.80;99.90;;;;;;5034145;28;20453;-70
2021/11/17 12:22:13;;;;;;;1.30;1.30;;;7.70;99.90;;;;;;5028149;28;20530;-70
2021/11/17 12:24:42;;;;;;;1.30;1.30;;;7.70;99.90;;;;;;5017099;28;20442;-67
2021/11/17 12:27:13;;;;;;;1.60;1.50;;;7.80;99.90;;;;;;5018439;28;20484;-65
2021/11/17 12:29:54;;;;;;;1.70;1.60;;;8.00;99.90;;;;;;5018063;28;20456;-66
2021/11/17 12:32:31;;;;;;;2.20;1.67;;;8.30;99.90;;;;;;5018682;28;20477;-68
2021/11/17 12:35:09;;;;;;;1.13;1.13;;;8.70;99.90;;;;;;5028043;28;20444;-70
2021/11/17 12:37:45;;;;;;;1.30;1.27;;;8.80;99.90;;;;;;5018601;28;20804;-71
2021/11/17 12:40:15;;;;;;;1.53;1.40;;;8.80;99.90;;;;;;5020731;28;20513;-67
2021/11/17 12:42:53;;;;;;;1.90;1.40;;;8.70;99.90;;;;;;5017487;28;20437;-68
2021/11/17 12:45:23;;;;;;;2.27;1.60;;;8.70;99.90;;;;;;5016806;28;20513;-67
2021/11/17 12:47:54;;;;;;;1.20;1.10;;;8.60;99.90;;;;;;5016192;28;20469;-69
2021/11/17 12:50:25;;;;;;;1.13;1.13;;;8.60;99.90;;;;;;5015781;28;20442;-69
2021/11/17 12:52:56;;;;;;;1.60;1.30;;;8.50;99.90;;;;;;5015821;28;20812;-69
2021/11/17 12:55:33;;;;;;;1.40;1.40;;;8.40;99.90;;;;;;5015595;28;20444;-69
2021/11/17 12:58:08;;;;;;;1.23;1.23;;;8.30;99.90;;;;;;5015848;28;20441;-69
2021/11/17 13:00:47;;;;;;;1.30;1.30;;;8.20;99.90;;;;;;5015486;28;20480;-69
2021/11/17 13:03:25;;;;;;;1.00;1.00;;;8.10;99.90;;;;;;5015872;28;20521;-68
2021/11/17 13:06:21;;;;;;;2.40;1.50;;;8.00;99.90;;;;;;5015647;28;20441;-68
2021/11/17 13:09:06;;;;;;;1.57;1.20;;;8.00;99.90;;;;;;5015949;28;20464;-69
2021/11/17 13:11:33;;;;;;;1.50;1.40;;;8.10;99.90;;;;;;5015769;28;20476;-69
2021/11/17 13:14:17;;;;;;;3.23;3.03;;;8.10;99.90;;;;;;5016901;28;20449;-69
2021/11/17 13:16:48;;;;;;;2.23;1.80;;;8.00;99.90;;;;;;5015153;28;20437;-69
2021/11/17 13:19:21;;;;;;;1.73;1.60;;;7.80;99.90;;;;;;5015364;28;20473;-69
2021/11/17 13:21:54;;;;;;;1.73;1.50;;;7.90;99.90;;;;;;5016022;28;20469;-68
2021/11/17 13:24:35;;;;;;;2.40;2.30;;;7.80;99.90;;;;;;5015601;28;20434;-69
2021/11/17 13:27:25;;;;;;;2.07;1.97;;;7.80;99.90;;;;;;5015432;28;21079;-69
2021/11/17 13:29:57;;;;;;;1.70;1.60;;;7.70;99.90;;;;;;5015086;28;20816;-68
2021/11/17 13:32:34;;;;;;;1.90;1.80;;;7.80;99.90;;;;;;5015099;28;20984;-68
2021/11/17 13:35:26;;;;;;;1.97;1.87;;;7.70;99.90;;;;;;5015698;28;20465;-68
2021/11/17 13:38:13;;;;;;;2.00;1.90;;;7.70;99.90;;;;;;5015760;28;20792;-68
2021/11/17 13:40:41;;;;;;;2.10;2.00;;;7.70;99.90;;;;;;5015572;28;20480;-68
2021/11/17 13:43:09;;;;;;;2.20;2.10;;;7.70;99.90;;;;;;5015533;28;20446;-68
2021/11/17 13:45:38;;;;;;;2.20;2.10;;;7.70;99.90;;;;;;5015301;28;20460;-68
2021/11/17 13:48:05;;;;;;;2.00;1.90;;;7.60;99.90;;;;;;5015227;28;20480;-68
2021/11/17 13:50:35;;;;;;;2.40;2.30;;;7.60;99.90;;;;;;5015745;28;20457;-69
2021/11/17 13:53:05;;;;;;;3.00;2.80;;;7.70;99.90;;;;;;5014858;28;20489;-68
2021/11/17 13:55:36;;;;;;;2.30;2.20;;;7.70;99.90;;;;;;5014740;28;20523;-67
2021/11/17 13:58:04;;;;;;;3.20;2.40;;;7.80;99.90;;;;;;5015619;28;20434;-69
2021/11/17 14:00:31;;;;;;;2.20;2.10;;;7.90;99.90;;;;;;5014565;28;20453;-70
2021/11/17 14:02:59;;;;;;;2.20;2.10;;;7.90;99.90;;;;;;5014798;28;20796;-68
2021/11/17 14:05:26;;;;;;;2.50;2.40;;;7.90;99.90;;;;;;5014548;28;20951;-67
2021/11/17 14:07:53;;;;;;;5.23;2.80;;;7.90;99.90;;;;;;5014388;28;20480;-68
2021/11/17 14:10:22;;;;;;;4.60;2.70;;;7.90;99.90;;;;;;5015065;28;20796;-68
2021/11/17 14:12:52;;;;;;;2.47;2.10;;;7.90;99.90;;;;;;5015881;28;20469;-67
2021/11/17 14:15:20;;;;;;;1.90;1.80;;;7.90;99.90;;;;;;5014661;28;20463;-67
2021/11/17 14:17:47;;;;;;;4.43;2.63;;;8.00;99.90;;;;;;5014758;28;20449;-67
2021/11/17 14:20:15;;;;;;;2.70;2.60;;;7.90;99.90;;;;;;5014385;28;20453;-68
2021/11/17 14:22:42;;;;;;;9.73;2.90;;;7.90;99.90;;;;;;5014603;28;20944;-68
2021/11/17 14:25:16;;;;;;;6.30;2.90;;;7.80;99.90;;;;;;5016528;28;20464;-68
2021/11/17 14:27:44;;;;;;;2.50;2.37;;;7.80;99.90;;;;;;5022243;28;20531;-68
2021/11/17 14:30:14;;;;;;;3.63;3.27;;;7.70;99.90;;;;;;5014893;28;20461;-68
2021/11/17 14:32:43;;;;;;;2.97;2.77;;;7.70;99.90;;;;;;5014644;28;20513;-68
2021/11/17 14:35:13;;;;;;;3.20;2.97;;;7.70;99.90;;;;;;5014809;28;20453;-68
2021/11/17 14:37:41;;;;;;;3.53;3.23;;;7.60;99.90;;;;;;5014148;28;20446;-69
2021/11/17 14:40:09;;;;;;;3.40;3.07;;;7.60;99.90;;;;;;5014287;28;20849;-68
2021/11/17 14:42:37;;;;;;;3.23;2.83;;;7.40;99.90;;;;;;5014335;28;20473;-69
2021/11/17 14:45:05;;;;;;;4.20;3.57;;;7.40;99.90;;;;;;5014340;28;20449;-69
2021/11/17 14:47:32;;;;;;;5.10;3.20;;;7.50;99.90;;;;;;5015329;28;20984;-68
2021/11/17 14:49:59;;;;;;;4.00;3.70;;;7.50;99.90;;;;;;5014383;28;20453;-69
2021/11/17 14:52:25;;;;;;;3.10;2.90;;;7.50;99.90;;;;;;5014887;28;20472;-68
2021/11/17 14:54:54;;;;;;;3.70;3.47;;;7.50;99.90;;;;;;5014318;28;20457;-69
2021/11/17 14:57:21;;;;;;;3.33;3.10;;;7.50;99.90;;;;;;5014259;28;20449;-69
2021/11/17 14:59:48;;;;;;;3.37;3.07;;;7.50;99.90;;;;;;5015679;28;20508;-69
2021/11/17 15:02:14;;;;;;;3.20;3.00;;;7.50;99.90;;;;;;5013805;28;20988;-69
2021/11/17 15:04:41;;;;;;;4.83;4.13;;;7.60;99.90;;;;;;5013627;28;20461;-68
2021/11/17 15:07:10;;;;;;;3.97;3.57;;;7.60;99.90;;;;;;5019295;28;20481;-69
2021/11/17 15:09:38;;;;;;;3.53;3.33;;;7.70;99.90;;;;;;5022031;28;20460;-69
2021/11/17 15:12:18;;;;;;;3.93;3.53;;;7.70;99.90;;;;;;5013713;28;20473;-68
2021/11/17 15:14:46;;;;;;;4.47;3.57;;;7.70;99.90;;;;;;5013646;28;20441;-69
2021/11/17 15:17:14;;;;;;;3.70;3.40;;;7.70;99.90;;;;;;5014137;28;20453;-69
2021/11/17 15:19:41;;;;;;;3.10;2.90;;;7.70;99.90;;;;;;5013458;28;20460;-69
2021/11/17 15:22:08;;;;;;;3.20;2.90;;;7.70;99.90;;;;;;5013648;28;20473;-68
2021/11/17 15:24:36;;;;;;;3.30;3.10;;;7.80;99.90;;;;;;5013615;28;20572;-68
2021/11/17 15:27:05;;;;;;;4.70;3.80;;;7.80;99.90;;;;;;5013566;28;20457;-68
2021/11/17 15:29:34;;;;;;;3.13;2.93;;;7.80;99.90;;;;;;5013527;28;20464;-69
2021/11/17 15:32:00;;;;;;;3.80;3.37;;;7.90;99.90;;;;;;5013452;28;20477;-69
2021/11/17 15:34:27;;;;;;;3.60;3.30;;;7.90;99.90;;;;;;5013321;28;20936;-69
2021/11/17 15:36:54;;;;;;;3.73;3.30;;;7.90;99.90;;;;;;5013708;28;20460;-69
2021/11/17 15:39:21;;;;;;;6.20;4.47;;;7.90;99.90;;;;;;5016704;28;20457;-69
2021/11/17 15:41:47;;;;;;;4.20;3.80;;;7.80;99.90;;;;;;5020418;28;20481;-69
2021/11/17 15:44:15;;;;;;;5.43;4.47;;;7.90;99.90;;;;;;5021455;28;20852;-69
2021/11/17 15:46:56;;;;;;;4.50;3.60;;;7.90;99.90;;;;;;5022888;28;20455;-69
2021/11/17 15:49:24;;;;;;;3.90;3.60;;;7.90;99.90;;;;;;5020366;28;20437;-69
2021/11/17 15:51:50;;;;;;;3.93;3.63;;;7.90;99.90;;;;;;5020436;28;20477;-69
2021/11/17 15:54:18;;;;;;;4.17;3.77;;;7.90;99.90;;;;;;5019449;28;20460;-69
2021/11/17 15:56:45;;;;;;;4.47;4.17;;;7.90;99.90;;;;;;5019634;28;20507;-69
2021/11/17 15:59:13;;;;;;;4.47;4.17;;;7.90;99.90;;;;;;5020140;28;20457;-69
2021/11/17 16:01:40;;;;;;;4.23;3.93;;;7.90;99.90;;;;;;5017508;28;20476;-69
2021/11/17 16:04:08;;;;;;;3.50;3.20;;;7.90;99.90;;;;;;5017086;28;20464;-69
2021/11/17 16:06:52;;;;;;;10.10;4.40;;;7.90;99.90;;;;;;5016882;28;20454;-69
2021/11/17 16:09:19;;;;;;;3.87;3.57;;;7.90;99.90;;;;;;5016881;28;20461;-69
2021/11/17 16:11:45;;;;;;;5.67;4.33;;;7.90;99.90;;;;;;5016691;28;20862;-69
2021/11/17 16:14:12;;;;;;;3.40;3.10;;;7.90;99.90;;;;;;5016399;28;20458;-69
2021/11/17 16:16:39;;;;;;;4.10;3.80;;;7.90;99.90;;;;;;5017205;28;20465;-69
2021/11/17 16:19:07;;;;;;;4.80;3.73;;;7.90;99.90;;;;;;5016708;28;20818;-69
2021/11/17 16:21:35;;;;;;;4.10;3.80;;;7.90;99.90;;;;;;5016546;28;20816;-68
2021/11/17 16:26:47;;;;;;;4.80;4.37;;;7.90;99.90;;;;;;5016621;28;20500;-69
2021/11/17 16:29:14;;;;;;;5.47;3.87;;;7.90;99.90;;;;;;5016643;28;20484;-69
2021/11/17 16:31:42;;;;;;;5.90;4.27;;;7.90;99.90;;;;;;5015961;28;20511;-69
2021/11/17 16:34:10;;;;;;;4.80;4.40;;;7.90;99.90;;;;;;5015966;28;20453;-69
2021/11/17 16:36:41;;;;;;;4.83;4.43;;;8.00;99.90;;;;;;5016082;28;20944;-69
2021/11/17 16:39:09;;;;;;;6.27;5.67;;;8.00;99.90;;;;;;5016059;28;20438;-69
2021/11/17 16:41:36;;;;;;;5.23;4.83;;;8.00;99.90;;;;;;5015833;28;20473;-69
2021/11/17 16:44:03;;;;;;;4.30;4.00;;;8.00;99.90;;;;;;5016215;28;20460;-68
2021/11/17 16:46:30;;;;;;;5.70;5.10;;;8.00;99.90;;;;;;5015866;28;20461;-68
2021/11/17 16:48:58;;;;;;;5.60;5.10;;;8.00;99.90;;;;;;5016099;28;20476;-68
2021/11/17 16:51:25;;;;;;;6.00;5.40;;;8.00;99.90;;;;;;5014703;28;20505;-69
2021/11/17 16:53:53;;;;;;;8.00;5.10;;;8.00;99.90;;;;;;5015606;28;20449;-69
2021/11/17 16:56:20;;;;;;;8.00;5.43;;;8.00;99.90;;;;;;5015656;28;20453;-68
2021/11/17 16:58:46;;;;;;;6.50;5.90;;;8.00;99.90;;;;;;5015644;28;20480;-68
2021/11/17 17:01:15;;;;;;;7.10;5.93;;;8.00;99.90;;;;;;5015444;28;20507;-69
2021/11/17 17:03:44;;;;;;;7.83;5.80;;;7.90;99.90;;;;;;5015684;28;20507;-69
2021/11/17 17:06:16;;;;;;;9.80;5.90;;;7.90;99.90;;;;;;5015322;28;20461;-69
2021/11/17 17:08:43;;;;;;;9.03;6.13;;;7.90;99.90;;;;;;5015515;28;20461;-68
2021/11/17 17:11:11;;;;;;;7.47;6.73;;;7.90;99.90;;;;;;5015191;28;20473;-68
2021/11/17 17:13:39;;;;;;;9.27;5.97;;;7.90;99.90;;;;;;5015180;28;20456;-69
2021/11/17 17:16:07;;;;;;;6.80;6.07;;;7.90;99.90;;;;;;5026568;28;20450;-68
2021/11/17 17:18:33;;;;;;;11.40;8.83;;;7.90;99.90;;;;;;5022330;28;20449;-69
2021/11/17 17:21:04;;;;;;;10.77;7.60;;;7.90;99.90;;;;;;5015499;28;20478;-69
2021/11/17 17:23:33;;;;;;;9.33;8.43;;;7.90;99.90;;;;;;5015407;28;20440;-70
2021/11/17 17:26:00;;;;;;;9.90;9.03;;;7.90;99.90;;;;;;5015237;28;20552;-67
2021/11/17 17:28:32;;;;;;;9.90;7.27;;;7.90;99.90;;;;;;5015085;28;20461;-68
2021/11/17 17:31:01;;;;;;;7.90;7.20;;;7.90;99.90;;;;;;5014867;28;20483;-68
2021/11/17 17:33:28;;;;;;;7.13;6.43;;;7.90;99.90;;;;;;5014976;28;20489;-68
2021/11/17 17:35:56;;;;;;;8.50;6.60;;;7.90;99.90;;;;;;5014975;28;20483;-68
2021/11/17 17:38:24;;;;;;;7.73;6.43;;;7.90;99.90;;;;;;5014962;28;20450;-68
2021/11/17 17:40:51;;;;;;;7.00;6.00;;;7.90;99.90;;;;;;5014464;28;20477;-68
2021/11/17 17:43:19;;;;;;;8.47;6.60;;;7.90;99.90;;;;;;5014755;28;20457;-68
2021/11/17 17:45:49;;;;;;;8.33;5.30;;;7.90;99.90;;;;;;5014830;28;20835;-69
2021/11/17 17:48:15;;;;;;;6.60;5.70;;;7.90;99.90;;;;;;5014659;28;20481;-68
2021/11/17 17:50:43;;;;;;;6.23;5.63;;;7.90;99.90;;;;;;5014539;28;20476;-68
2021/11/17 17:53:13;;;;;;;7.97;6.07;;;7.90;99.90;;;;;;5014766;28;20508;-67
2021/11/17 17:55:40;;;;;;;7.73;6.90;;;7.90;99.90;;;;;;5014454;28;20448;-68
2021/11/17 17:58:07;;;;;;;12.90;9.70;;;7.90;99.90;;;;;;5014639;28;20434;-68
2021/11/17 18:00:36;;;;;;;11.00;8.17;;;7.90;99.90;;;;;;5014424;28;20472;-68
2021/11/17 18:03:05;;;;;;;7.20;6.50;;;7.90;99.90;;;;;;5014539;28;20442;-67
2021/11/17 18:05:32;;;;;;;8.80;7.03;;;8.00;99.90;;;;;;5015001;28;20459;-69
2021/11/17 18:07:58;;;;;;;6.30;5.80;;;8.00;99.90;;;;;;5014319;28;20452;-67
2021/11/17 18:10:29;;;;;;;7.00;6.30;;;8.00;99.90;;;;;;5014423;28;20460;-69
2021/11/17 18:12:56;;;;;;;7.17;6.00;;;7.90;99.90;;;;;;5014585;28;20446;-68
2021/11/17 18:15:24;;;;;;;6.00;5.50;;;8.00;99.90;;;;;;5014385;28;20459;-67
2021/11/17 18:17:51;;;;;;;7.97;7.17;;;8.00;99.90;;;;;;5016335;28;20461;-67
2021/11/17 18:20:20;;;;;;;9.10;8.27;;;8.00;99.90;;;;;;5016848;28;20461;-68
2021/11/17 18:22:47;;;;;;;7.37;6.77;;;8.00;99.90;;;;;;5016792;28;20437;-67
2021/11/17 18:25:17;;;;;;;7.33;6.03;;;8.00;99.90;;;;;;5016648;28;20458;-67
2021/11/17 18:27:44;;;;;;;8.50;5.47;;;7.90;99.90;;;;;;5016541;28;20449;-68